• Join FlightAware (Why Join?)
  • Login
  • US Flag 
02:23PM EDT


 

Airport Tracker/Info


-or-


 

Live Flight TrackerFlight Track Log ✈ N923SA ✈ 12-06-2013 ✈ KDED - KVQQ

Flight Track Log - Related Links

Times and Time Zones

All times are in EDT time to prevent confusion due to time zone crossing. See the N923SA flight status page for this flight to view local times or setup timezone preferences in your user account.

Time Position Orientation Groundspeed Altitude Reporting Facility
EDT Latitude Longitude Course Direction KTS MPH feet Rate Location/Type
03:27PM 29.5536 -81.5222 351° North 96 110 3,200  Level Jacksonville Center
03:27PM 29.5661 -81.5244 351° North 96 110 3,000 -240 Descending Jacksonville Center
03:28PM 29.5869 -81.5264 355° North 90 104 2,900  Descending Jacksonville Center
03:29PM 29.6119 -81.5286 356° North 96 110 3,000  Climbing Jacksonville Center
03:30PM 29.6331 -81.5475 322° Northwest 91 105 3,000  Level Jacksonville Center
03:31PM 29.6542 -81.5661 323° Northwest 87 100 3,000  Level Jacksonville Center
03:32PM 29.6772 -81.5778 336° Northwest 91 105 3,000  Level Jacksonville Center
03:33PM 29.7003 -81.5919 332° Northwest 91 105 3,000 -60 Level Jacksonville Center
03:34PM 29.7236 -81.6083 329° Northwest 94 108 2,900  Descending Jacksonville Center
03:35PM 29.7486 -81.6200 338° Northwest 95 109 3,000  Climbing Jacksonville Center
03:36PM 29.7717 -81.6364 328° Northwest 105 121 2,900 -60 Descending Jacksonville Center
03:37PM 29.7928 -81.6553 322° Northwest 95 109 2,900  Level Jacksonville Center
03:38PM 29.8139 -81.6742 322° Northwest 93 107 2,900  Level Jacksonville Center
03:39PM 29.8328 -81.6931 319° Northwest 90 104 3,000  Climbing Jacksonville Center
03:40PM 29.8539 -81.7119 322° Northwest 95 109 3,000  Level Jacksonville Center
03:41PM 29.8769 -81.7283 328° Northwest 99 114 3,000  Level Jacksonville Center
03:42PM 29.9042 -81.7353 348° North 103 119 3,000 -60 Level Jacksonville Center
03:43PM 29.9336 -81.7494 337° Northwest 98 113 2,900  Descending Jacksonville Center
03:45PM 29.9567 -81.7561 346° North 93 107 3,000  Climbing Jacksonville Center
03:46PM 29.9817 -81.7608 351° North 94 108 3,000  Level Jacksonville Center
03:47PM 30.0089 -81.7653 352° North 92 106 3,000  Level Jacksonville Center
03:48PM 30.0339 -81.7672 356° North 93 107 3,100  Climbing Jacksonville Center
03:49PM 30.0592 -81.7767 342° North 86 99 3,000 -300 Descending Jacksonville Center
03:50PM 30.0803 -81.7933 326° Northwest 91 105 2,500 -600 Descending Jacksonville Center
03:51PM 30.0992 -81.8144 316° Northwest 92 106 1,900 -540 Descending Jacksonville Center
03:52PM 30.1242 -81.8214 346° North 101 116 1,500 -360 Descending Jacksonville Center
03:53PM 30.1494 -81.8356 334° Northwest 93 107 1,200 -300 Descending Jacksonville Center
03:55PM 30.1967 -81.8574 338° Northwest  Level FlightAware Approximate
04:02PM 30.2167 -81.8667 333° Northwest  Level FlightAware Approximate
04:03PM 30.2188 -81.8772 333° Northwest  Level Estimated
04:04PM 30.2188 -81.8772 333° Northwest  Level Estimated
04:05PM 30.2188 -81.8772 333° Northwest  Level Estimated